Time,TemperatureF,DewpointF,PressureIn,WindDirection,WindDirectionDegrees,WindSpeedMPH,WindSpeedGustMPH,Humidity,HourlyPrecipIn,Conditions,Clouds,dailyrainin,SolarRadiationWatts/m^2,SoftwareType,DateUTC
2013-04-01 00:04:00,32.0,22.6,29.92,NW,306,1.1,1.1,68,0.00,CLR,,0.00,0.0,WeatherDisplay:10.37,2013-04-01 05:04:00,
2013-04-01 00:09:00,32.0,22.3,29.92,SW,224,2.3,2.3,67,0.00,CLR,,0.00,0.0,WeatherDisplay:10.37,2013-04-01 05:09:00,
2013-04-01 00:14:00,32.0,22.3,29.92,SW,219,0.0,0.0,67,0.00,CLR,,0.00,0.0,WeatherDisplay:10.37,2013-04-01 05:14:00,
2013-04-01 00:19:00,31.9,22.2,29.92,WNW,295,0.0,0.0,67,0.00,CLR,,0.00,0.0,WeatherDisplay:10.37,2013-04-01 05:19:00,
2013-04-01 00:24:00,31.9,21.8,29.93,WNW,302,0.0,0.0,66,0.00,CLR,,0.00,0.0,WeatherDisplay:10.37,2013-04-01 05:24:00,
2013-04-01 00:29:00,31.8,21.7,29.93,WNW,287,1.0,0.0,66,0.00,CLR,,0.00,0.0,WeatherDisplay:10.37,2013-04-01 05:29:00,
2013-04-01 00:34:00,31.8,21.7,29.93,WSW,258,0.0,0.0,66,0.00,CLR,,0.00,0.0,WeatherDisplay:10.37,2013-04-01 05:34:00,
2013-04-01 00:39:00,31.7,22.0,29.93,WSW,258,0.0,0.0,67,0.00,CLR,,0.00,0.0,WeatherDisplay:10.37,2013-04-01 05:39:00,
2013-04-01 00:44:00,31.5,22.1,29.94,SW,228,0.0,0.0,68,0.00,CLR,,0.00,0.0,WeatherDisplay:10.37,2013-04-01 05:44:00,
2013-04-01 00:49:00,31.3,22.0,29.94,SW,235,0.0,0.0,68,0.00,CLR,,0.00,0.0,WeatherDisplay:10.37,2013-04-01 05:49:00,
2013-04-01 00:54:00,31.2,22.2,29.94,SW,235,0.0,0.0,69,0.00,CLR,,0.00,0.0,WeatherDisplay:10.37,2013-04-01 05:54:00,
2013-04-01 00:59:00,31.1,22.1,29.94,SW,235,0.0,0.0,69,0.00,CLR,,0.00,0.0,WeatherDisplay:10.37,2013-04-01 05:59:00,
2013-04-01 01:04:00,30.9,21.9,29.94,SW,235,0.0,0.0,69,0.00,CLR,,0.00,0.0,WeatherDisplay:10.37,2013-04-01 06:04:00,
2013-04-01 01:09:00,30.7,21.7,29.94,WSW,254,0.0,0.0,69,0.00,CLR,,0.00,0.0,WeatherDisplay:10.37,2013-04-01 06:09:00,
2013-04-01 01:14:00,30.6,21.6,29.95,WSW,254,0.0,0.0,69,0.00,CLR,,0.00,0.0,WeatherDisplay:10.37,2013-04-01 06:14:00,
2013-04-01 01:19:00,30.5,21.5,29.95,WSW,254,0.0,0.0,69,0.00,CLR,,0.00,0.0,WeatherDisplay:10.37,2013-04-01 06:19:00,
2013-04-01 01:24:00,30.4,21.4,29.95,WNW,288,0.0,0.0,69,0.00,CLR,,0.00,0.0,WeatherDisplay:10.37,2013-04-01 06:24:00,
2013-04-01 01:29:00,30.6,21.3,29.96,NW,320,2.3,2.3,68,0.00,CLR,,0.00,0.0,WeatherDisplay:10.37,2013-04-01 06:29:00,
2013-04-01 01:34:00,30.7,21.0,29.96,SSW,209,0.0,0.0,67,0.00,CLR,,0.00,0.0,WeatherDisplay:10.37,2013-04-01 06:34:00,
2013-04-01 01:39:00,30.8,21.1,29.97,West,272,0.0,0.0,67,0.00,CLR,,0.00,0.0,WeatherDisplay:10.37,2013-04-01 06:39:00,
2013-04-01 01:44:00,30.7,21.0,29.97,West,281,1.1,0.0,67,0.00,CLR,,0.00,0.0,WeatherDisplay:10.37,2013-04-01 06:44:00,
2013-04-01 01:49:00,30.6,20.9,29.97,West,281,0.0,0.0,67,0.00,CLR,,0.00,0.0,WeatherDisplay:10.37,2013-04-01 06:49:00,
2013-04-01 01:54:00,30.4,21.1,29.97,West,281,0.0,0.0,68,0.00,CLR,,0.00,0.0,WeatherDisplay:10.37,2013-04-01 06:54:00,
2013-04-01 01:59:00,30.3,21.0,29.97,West,281,0.0,0.0,68,0.00,CLR,,0.00,0.0,WeatherDisplay:10.37,2013-04-01 06:59:00,
2013-04-01 02:04:00,30.3,21.0,29.97,West,281,1.0,0.0,68,0.00,CLR,,0.00,0.0,WeatherDisplay:10.37,2013-04-01 07:04:00,
2013-04-01 02:09:00,30.2,20.9,29.97,WNW,289,0.0,0.0,68,0.00,CLR,,0.00,0.0,WeatherDisplay:10.37,2013-04-01 07:09:00,
2013-04-01 02:14:00,30.1,20.5,29.98,WNW,289,0.0,0.0,67,0.00,CLR,,0.00,0.0,WeatherDisplay:10.37,2013-04-01 07:14:00,
2013-04-01 02:19:00,30.0,19.7,29.98,WNW,283,3.5,3.5,65,0.00,CLR,,0.00,0.0,WeatherDisplay:10.37,2013-04-01 07:19:00,
2013-04-01 02:24:00,30.0,19.3,29.98,NW,314,3.5,0.0,64,0.00,CLR,,0.00,0.0,WeatherDisplay:10.37,2013-04-01 07:24:00,
2013-04-01 02:29:00,29.9,19.6,29.98,NW,318,5.8,5.8,65,0.00,CLR,,0.00,0.0,WeatherDisplay:10.37,2013-04-01 07:29:00,
2013-04-01 02:34:00,29.9,19.2,29.98,NW,314,1.1,1.1,64,0.00,CLR,,0.00,0.0,WeatherDisplay:10.37,2013-04-01 07:34:00,
2013-04-01 02:39:00,29.8,19.1,29.98,WNW,282,0.0,0.0,64,0.00,CLR,,0.00,0.0,WeatherDisplay:10.37,2013-04-01 07:39:00,
2013-04-01 02:44:00,29.8,19.5,29.98,NW,324,2.3,2.3,65,0.00,CLR,,0.00,0.0,WeatherDisplay:10.37,2013-04-01 07:44:00,
2013-04-01 02:49:00,29.8,19.8,29.99,WNW,297,3.5,3.5,66,0.00,CLR,,0.00,0.0,WeatherDisplay:10.37,2013-04-01 07:49:00,
2013-04-01 02:54:00,29.8,19.5,29.99,NNE,13,2.3,0.0,65,0.00,CLR,,0.00,0.0,WeatherDisplay:10.37,2013-04-01 07:54:00,
2013-04-01 02:59:00,29.8,19.8,29.99,WNW,294,5.0,5.0,66,0.00,CLR,,0.00,0.0,WeatherDisplay:10.37,2013-04-01 07:59:00,
2013-04-01 03:04:00,29.7,19.4,29.99,West,278,4.6,4.6,65,0.00,CLR,,0.00,0.0,WeatherDisplay:10.37,2013-04-01 08:04:00,
2013-04-01 03:09:00,29.7,19.4,29.99,WNW,283,2.3,2.3,65,0.00,CLR,,0.00,0.0,WeatherDisplay:10.37,2013-04-01 08:09:00,
2013-04-01 03:14:00,29.7,19.7,29.99,WNW,292,0.0,0.0,66,0.00,CLR,,0.00,0.0,WeatherDisplay:10.37,2013-04-01 08:14:00,
2013-04-01 03:19:00,29.7,19.7,30.00,WNW,286,0.0,0.0,66,0.00,CLR,,0.00,0.0,WeatherDisplay:10.37,2013-04-01 08:19:00,
2013-04-01 03:24:00,29.7,19.7,30.00,NNW,342,2.3,2.3,66,0.00,CLR,,0.00,0.0,WeatherDisplay:10.37,2013-04-01 08:24:00,
2013-04-01 03:29:00,29.7,19.7,30.00,WNW,292,0.0,0.0,66,0.00,CLR,,0.00,0.0,WeatherDisplay:10.37,2013-04-01 08:29:00,
2013-04-01 03:34:00,29.8,19.8,30.00,WNW,302,1.1,1.1,66,0.00,CLR,,0.00,0.0,WeatherDisplay:10.37,2013-04-01 08:34:00,
2013-04-01 03:39:00,29.8,20.2,30.00,NNW,337,0.0,0.0,67,0.00,CLR,,0.00,0.0,WeatherDisplay:10.37,2013-04-01 08:39:00,
2013-04-01 03:44:00,29.7,20.1,30.01,WNW,286,3.5,3.5,67,0.00,CLR,,0.00,0.0,WeatherDisplay:10.37,2013-04-01 08:44:00,
2013-04-01 03:49:00,29.6,20.3,30.01,West,279,0.0,0.4,68,0.00,CLR,,0.00,0.0,WeatherDisplay:10.37,2013-04-01 08:49:00,
2013-04-01 03:54:00,29.5,20.2,30.01,West,277,0.0,0.0,68,0.00,CLR,,0.00,0.0,WeatherDisplay:10.37,2013-04-01 08:54:00,
2013-04-01 03:59:00,29.4,20.5,30.01,West,276,0.0,0.0,69,0.00,CLR,,0.00,0.0,WeatherDisplay:10.37,2013-04-01 08:59:00,
2013-04-01 04:04:00,29.4,20.5,30.01,West,276,0.0,0.0,69,0.00,CLR,,0.00,0.0,WeatherDisplay:10.37,2013-04-01 09:04:00,
2013-04-01 04:09:00,29.3,20.4,30.01,NW,305,2.0,2.0,69,0.00,CLR,,0.00,0.0,WeatherDisplay:10.37,2013-04-01 09:09:00,
2013-04-01 04:14:00,29.2,20.3,30.02,NW,304,0.0,0.0,69,0.00,CLR,,0.00,0.0,WeatherDisplay:10.37,2013-04-01 09:14:00,
2013-04-01 04:19:00,29.1,20.5,30.02,WSW,243,0.0,0.0,70,0.00,CLR,,0.00,0.0,WeatherDisplay:10.37,2013-04-01 09:19:00,
2013-04-01 04:24:00,29.0,20.4,30.02,WNW,285,0.0,0.0,70,0.00,CLR,,0.00,0.0,WeatherDisplay:10.37,2013-04-01 09:24:00,
2013-04-01 04:29:00,29.0,20.4,30.02,WNW,283,2.3,2.3,70,0.00,CLR,,0.00,0.0,WeatherDisplay:10.37,2013-04-01 09:29:00,
2013-04-01 04:34:00,28.9,20.7,30.03,WNW,283,0.0,0.0,71,0.00,CLR,,0.00,0.0,WeatherDisplay:10.37,2013-04-01 09:34:00,
2013-04-01 04:39:00,28.7,21.1,30.03,SW,223,1.1,1.1,73,0.00,CLR,,0.00,0.0,WeatherDisplay:10.37,2013-04-01 09:39:00,
2013-04-01 04:44:00,28.5,21.3,30.03,West,279,3.5,3.5,74,0.00,CLR,,0.00,0.0,WeatherDisplay:10.37,2013-04-01 09:44:00,
2013-04-01 04:49:00,28.2,21.3,30.03,WNW,297,3.5,3.5,75,0.00,CLR,,0.00,0.0,WeatherDisplay:10.37,2013-04-01 09:49:00,
2013-04-01 04:54:00,28.1,21.5,30.03,WNW,282,0.0,0.0,76,0.00,CLR,,0.00,0.0,WeatherDisplay:10.37,2013-04-01 09:54:00,
2013-04-01 04:59:00,28.0,21.4,30.03,NW,304,0.0,0.1,76,0.00,CLR,,0.00,0.0,WeatherDisplay:10.37,2013-04-01 09:59:00,
2013-04-01 05:04:00,28.0,21.7,30.04,WNW,290,0.0,0.0,77,0.00,CLR,,0.00,0.0,WeatherDisplay:10.37,2013-04-01 10:04:00,
2013-04-01 05:09:00,28.0,21.7,30.04,NW,323,1.1,1.1,77,0.00,CLR,,0.00,0.0,WeatherDisplay:10.37,2013-04-01 10:09:00,
2013-04-01 05:14:00,28.0,21.7,30.04,West,278,0.0,0.0,77,0.00,CLR,,0.00,0.0,WeatherDisplay:10.37,2013-04-01 10:14:00,
2013-04-01 05:19:00,28.0,21.7,30.04,West,278,0.0,0.0,77,0.00,CLR,,0.00,0.0,WeatherDisplay:10.37,2013-04-01 10:19:00,
2013-04-01 05:24:00,28.0,21.7,30.05,West,279,0.0,0.0,77,0.00,CLR,,0.00,0.0,WeatherDisplay:10.37,2013-04-01 10:24:00,
2013-04-01 05:29:00,27.9,21.9,30.05,West,268,2.3,0.0,78,0.00,CLR,,0.00,0.0,WeatherDisplay:10.37,2013-04-01 10:29:00,
2013-04-01 05:34:00,27.8,21.8,30.05,West,268,0.0,0.0,78,0.00,CLR,,0.00,0.0,WeatherDisplay:10.37,2013-04-01 10:34:00,
2013-04-01 05:39:00,27.8,21.8,30.05,West,268,0.0,0.0,78,0.00,CLR,,0.00,0.0,WeatherDisplay:10.37,2013-04-01 10:39:00,
2013-04-01 05:44:00,27.8,21.8,30.05,WNW,285,2.3,2.3,78,0.00,CLR,,0.00,0.0,WeatherDisplay:10.37,2013-04-01 10:44:00,
2013-04-01 05:49:00,27.8,21.5,30.06,WNW,285,0.0,0.0,77,0.00,CLR,,0.00,0.0,WeatherDisplay:10.37,2013-04-01 10:49:00,
2013-04-01 05:54:00,27.7,21.4,30.06,West,281,0.0,0.0,77,0.00,CLR,,0.00,0.0,WeatherDisplay:10.37,2013-04-01 10:54:00,
2013-04-01 05:59:00,27.6,21.0,30.06,WSW,237,3.0,3.0,76,0.00,CLR,,0.00,0.0,WeatherDisplay:10.37,2013-04-01 10:59:00,
2013-04-01 06:04:00,27.5,20.3,30.06,WSW,246,0.0,0.0,74,0.00,CLR,,0.00,0.0,WeatherDisplay:10.37,2013-04-01 11:04:00,
2013-04-01 06:09:00,27.4,19.6,30.06,WNW,282,1.1,1.1,72,0.00,OVC,,0.00,0.0,WeatherDisplay:10.37,2013-04-01 11:09:00,
2013-04-01 06:14:00,27.3,19.1,30.07,SSW,205,1.1,1.1,71,0.00,OVC,,0.00,0.0,WeatherDisplay:10.37,2013-04-01 11:14:00,
2013-04-01 06:19:00,27.2,18.7,30.07,WNW,302,1.1,1.1,70,0.00,OVC,,0.00,0.0,WeatherDisplay:10.37,2013-04-01 11:19:00,
2013-04-01 06:24:00,27.2,18.7,30.07,WNW,285,0.0,0.0,70,0.00,OVC,,0.00,0.0,WeatherDisplay:10.37,2013-04-01 11:24:00,
2013-04-01 06:29:00,27.1,18.3,30.07,SW,223,0.0,0.0,69,0.00,OVC,,0.00,0.0,WeatherDisplay:10.37,2013-04-01 11:29:00,
2013-04-01 06:34:00,27.0,18.5,30.08,WNW,282,0.0,0.0,70,0.00,OVC,,0.00,0.0,WeatherDisplay:10.37,2013-04-01 11:34:00,
2013-04-01 06:39:00,26.8,18.3,30.08,WNW,302,0.0,0.0,70,0.00,OVC,,0.00,5.0,WeatherDisplay:10.37,2013-04-01 11:39:00,
2013-04-01 06:45:00,26.8,18.3,30.08,SSW,204,0.0,0.0,70,0.00,CLR,,0.00,7.0,WeatherDisplay:10.37,2013-04-01 11:45:00,
2013-04-01 06:50:00,26.7,18.6,30.08,West,275,0.0,1.0,71,0.00,BKN,,0.00,9.0,WeatherDisplay:10.37,2013-04-01 11:50:00,
2013-04-01 06:55:00,26.7,18.5,30.08,WNW,299,0.0,1.0,71,0.00,BKN,,0.00,11.0,WeatherDisplay:10.37,2013-04-01 11:55:00,
2013-04-01 07:00:00,26.6,18.5,30.09,WNW,291,0.0,2.0,71,0.00,BKN,,0.00,12.0,WeatherDisplay:10.37,2013-04-01 12:00:00,
2013-04-01 07:05:00,26.5,17.7,30.09,NNE,15,3.5,0.0,69,0.00,BKN,,0.00,16.0,WeatherDisplay:10.37,2013-04-01 12:05:00,
2013-04-01 07:10:00,26.5,17.4,30.09,NW,316,0.0,2.0,68,0.00,BKN,,0.00,21.0,WeatherDisplay:10.37,2013-04-01 12:10:00,
2013-04-01 07:15:00,26.6,17.1,30.10,West,269,0.0,1.0,67,0.00,BKN,,0.00,30.0,WeatherDisplay:10.37,2013-04-01 12:15:00,
2013-04-01 07:20:00,26.7,16.9,30.10,West,272,0.0,2.0,66,0.00,BKN,,0.00,37.0,WeatherDisplay:10.37,2013-04-01 12:20:00,
2013-04-01 07:25:00,26.9,17.0,30.10,WNW,283,0.0,0.0,66,0.00,BKN,,0.00,44.0,WeatherDisplay:10.37,2013-04-01 12:25:00,
2013-04-01 07:30:00,27.0,16.5,30.10,WNW,285,0.0,1.0,64,0.00,SCT,,0.00,60.0,WeatherDisplay:10.37,2013-04-01 12:30:00,
2013-04-01 07:35:00,27.2,16.6,30.11,WNW,293,0.0,2.0,64,0.00,BKN,,0.00,54.0,WeatherDisplay:10.37,2013-04-01 12:35:00,
2013-04-01 07:40:00,27.3,16.0,30.11,WNW,294,0.0,2.0,62,0.00,BKN,,0.00,35.0,WeatherDisplay:10.37,2013-04-01 12:40:00,
2013-04-01 07:45:00,27.4,16.1,30.11,West,275,0.0,5.0,62,0.00,BKN,,0.00,67.0,WeatherDisplay:10.37,2013-04-01 12:45:00,
2013-04-01 07:50:00,27.5,16.2,30.11,West,281,0.0,2.0,62,0.00,BKN,,0.00,46.0,WeatherDisplay:10.37,2013-04-01 12:50:00,
2013-04-01 07:55:00,27.7,16.4,30.11,West,278,0.0,6.0,62,0.00,BKN,,0.00,70.0,WeatherDisplay:10.37,2013-04-01 12:55:00,
2013-04-01 08:00:00,27.8,16.5,30.12,WNW,291,0.0,3.0,62,0.00,BKN,,0.00,72.0,WeatherDisplay:10.37,2013-04-01 13:00:00,
2013-04-01 08:05:00,27.8,16.5,30.12,NW,312,0.0,5.0,62,0.00,BKN,,0.00,70.0,WeatherDisplay:10.37,2013-04-01 13:05:00,
2013-04-01 08:10:00,27.6,16.3,30.12,WNW,291,0.0,5.0,62,0.00,BKN,,0.00,63.0,WeatherDisplay:10.37,2013-04-01 13:10:00,
2013-04-01 08:15:00,27.5,16.5,30.12,WNW,298,0.0,2.0,63,0.00,BKN,,0.00,67.0,WeatherDisplay:10.37,2013-04-01 13:15:00,
2013-04-01 08:20:00,27.3,16.4,30.13,WNW,290,0.0,3.0,63,0.00,BKN,,0.00,39.0,WeatherDisplay:10.37,2013-04-01 13:20:00,
2013-04-01 08:25:00,27.2,16.6,30.13,West,271,0.0,2.0,64,0.00,BKN,,0.00,70.0,WeatherDisplay:10.37,2013-04-01 13:25:00,
2013-04-01 08:30:00,27.1,16.5,30.13,West,273,0.0,5.0,64,0.00,BKN,,0.00,77.0,WeatherDisplay:10.37,2013-04-01 13:30:00,
2013-04-01 08:35:00,27.1,16.6,30.13,WNW,297,0.0,2.0,64,0.00,BKN,,0.00,220.0,WeatherDisplay:10.37,2013-04-01 13:35:00,
2013-04-01 08:40:00,27.6,17.4,30.13,WNW,293,0.0,2.0,65,0.00,SCT,,0.00,104.0,WeatherDisplay:10.37,2013-04-01 13:40:00,
2013-04-01 08:45:00,27.9,17.3,30.13,WNW,287,0.0,3.0,64,0.00,SCT,,0.00,118.0,WeatherDisplay:10.37,2013-04-01 13:45:00,
2013-04-01 08:50:00,28.1,16.7,30.13,West,281,0.0,3.0,62,0.00,BKN,,0.00,229.0,WeatherDisplay:10.37,2013-04-01 13:50:00,
2013-04-01 08:55:00,28.4,17.0,30.13,WNW,302,0.0,2.0,62,0.00,SCT,,0.00,151.0,WeatherDisplay:10.37,2013-04-01 13:55:00,
2013-04-01 09:00:00,28.4,16.3,30.13,WNW,301,0.0,3.0,60,0.00,SCT,,0.00,132.0,WeatherDisplay:10.37,2013-04-01 14:00:00,
2013-04-01 09:05:00,28.2,16.1,30.14,West,266,1.0,10.0,60,0.00,BKN,,0.00,155.0,WeatherDisplay:10.37,2013-04-01 14:05:00,
2013-04-01 09:10:00,28.1,16.0,30.14,West,276,1.0,4.0,60,0.00,BKN,,0.00,125.0,WeatherDisplay:10.37,2013-04-01 14:10:00,
2013-04-01 09:15:00,28.1,16.4,30.14,WSW,258,3.5,3.5,61,0.00,BKN,,0.00,169.0,WeatherDisplay:10.37,2013-04-01 14:15:00,
2013-04-01 09:20:00,28.2,15.7,30.14,WNW,288,1.0,6.0,59,0.00,SCT,,0.00,582.0,WeatherDisplay:10.37,2013-04-01 14:20:00,
2013-04-01 09:25:00,28.5,15.2,30.14,West,279,0.0,7.0,57,0.00,SCT,,0.00,206.0,WeatherDisplay:10.37,2013-04-01 14:25:00,
2013-04-01 09:30:00,28.4,15.1,30.14,West,273,1.0,5.0,57,0.00,SCT,,0.00,236.0,WeatherDisplay:10.37,2013-04-01 14:30:00,
2013-04-01 09:35:00,28.4,15.1,30.14,West,278,0.0,6.0,57,0.00,BKN,,0.00,153.0,WeatherDisplay:10.37,2013-04-01 14:35:00,
2013-04-01 09:40:00,28.4,15.1,30.14,WSW,244,2.3,2.3,57,0.00,BKN,,0.00,214.0,WeatherDisplay:10.37,2013-04-01 14:40:00,
2013-04-01 09:45:00,29.3,16.3,30.14,South,174,3.5,3.5,58,0.00,SCT,,0.00,664.0,WeatherDisplay:10.37,2013-04-01 14:45:00,
2013-04-01 09:50:00,29.4,15.2,30.14,WSW,252,0.0,7.0,55,0.00,CLR,,0.00,128.0,WeatherDisplay:10.37,2013-04-01 14:50:00,
2013-04-01 09:55:00,29.4,15.6,30.14,WSW,253,1.0,6.0,56,0.00,FEW,,0.00,592.0,WeatherDisplay:10.37,2013-04-01 14:55:00,
2013-04-01 10:00:00,29.4,15.2,30.15,West,275,1.0,9.0,55,0.00,FEW,,0.00,631.0,WeatherDisplay:10.37,2013-04-01 15:00:00,
2013-04-01 10:05:00,29.6,15.0,30.15,West,267,1.0,10.0,54,0.00,CLR,,0.00,664.0,WeatherDisplay:10.37,2013-04-01 15:05:00,
2013-04-01 10:10:00,29.9,15.2,30.15,WNW,290,1.0,4.0,54,0.00,CLR,,0.00,689.0,WeatherDisplay:10.37,2013-04-01 15:10:00,
2013-04-01 10:15:00,30.0,15.3,30.15,WNW,289,0.0,7.0,54,0.00,CLR,,0.00,236.0,WeatherDisplay:10.37,2013-04-01 15:15:00,
2013-04-01 10:20:00,30.1,15.9,30.15,WNW,288,1.0,2.0,55,0.00,CLR,,0.00,744.0,WeatherDisplay:10.37,2013-04-01 15:20:00,
2013-04-01 10:25:00,30.7,15.6,30.15,West,278,2.3,2.3,53,0.00,CLR,,0.00,229.0,WeatherDisplay:10.37,2013-04-01 15:25:00,
2013-04-01 10:30:00,30.5,15.8,30.15,SSW,205,1.1,1.1,54,0.00,CLR,,0.00,700.0,WeatherDisplay:10.37,2013-04-01 15:30:00,
2013-04-01 10:35:00,30.8,16.5,30.15,NNW,342,3.5,3.5,55,0.00,FEW,,0.00,724.0,WeatherDisplay:10.37,2013-04-01 15:35:00,
2013-04-01 10:40:00,31.3,17.4,30.16,NW,326,1.1,0.0,56,0.00,CLR,,0.00,780.0,WeatherDisplay:10.37,2013-04-01 15:40:00,
2013-04-01 10:45:00,31.2,16.0,30.16,West,269,1.1,1.1,53,0.00,CLR,,0.00,763.0,WeatherDisplay:10.37,2013-04-01 15:45:00,
2013-04-01 10:50:00,31.1,15.9,30.15,WSW,243,2.3,2.3,53,0.00,CLR,,0.00,466.0,WeatherDisplay:10.37,2013-04-01 15:50:00,
2013-04-01 10:55:00,30.8,15.7,30.16,West,266,8.1,8.1,53,0.00,CLR,,0.00,483.0,WeatherDisplay:10.37,2013-04-01 15:55:00,
2013-04-01 11:00:00,30.7,14.7,30.16,South,173,2.3,2.3,51,0.00,FEW,,0.00,863.0,WeatherDisplay:10.37,2013-04-01 16:00:00,
2013-04-01 11:05:00,30.7,16.0,30.16,NW,308,3.5,3.5,54,0.00,CLR,,0.00,116.0,WeatherDisplay:10.37,2013-04-01 16:05:00,
2013-04-01 11:10:00,31.1,16.8,30.16,WSW,250,4.6,4.6,55,0.00,CLR,,0.00,796.0,WeatherDisplay:10.37,2013-04-01 16:10:00,
2013-04-01 11:15:00,31.5,17.2,30.16,WSW,246,4.6,4.6,55,0.00,CLR,,0.00,900.0,WeatherDisplay:10.37,2013-04-01 16:15:00,
2013-04-01 11:20:00,31.1,15.9,30.16,WNW,293,1.1,0.0,53,0.00,FEW,,0.00,921.0,WeatherDisplay:10.37,2013-04-01 16:20:00,
2013-04-01 11:25:00,31.0,15.8,30.16,WSW,237,1.1,1.1,53,0.00,SCT,,0.00,322.0,WeatherDisplay:10.37,2013-04-01 16:25:00,
2013-04-01 11:30:00,31.1,16.4,30.16,SW,231,4.0,4.0,54,0.00,BKN,,0.00,316.0,WeatherDisplay:10.37,2013-04-01 16:30:00,
2013-04-01 11:35:00,31.5,17.2,30.16,WSW,244,2.3,0.0,55,0.00,BKN,,0.00,243.0,WeatherDisplay:10.37,2013-04-01 16:35:00,
2013-04-01 11:40:00,31.6,16.4,30.16,WNW,285,2.3,2.3,53,0.00,SCT,,0.00,976.0,WeatherDisplay:10.37,2013-04-01 16:40:00,
2013-04-01 11:45:00,32.4,18.0,30.16,SW,234,1.0,0.0,55,0.00,CLR,,0.00,963.0,WeatherDisplay:10.37,2013-04-01 16:45:00,
2013-04-01 11:50:00,32.6,17.3,30.16,SSW,203,6.9,6.9,53,0.00,CLR,,0.00,905.0,WeatherDisplay:10.37,2013-04-01 16:50:00,
2013-04-01 11:55:00,32.7,17.4,30.16,SW,222,3.5,3.5,53,0.00,CLR,,0.00,940.0,WeatherDisplay:10.37,2013-04-01 16:55:00,
2013-04-01 12:00:00,32.3,16.2,30.16,WNW,301,2.3,2.3,51,0.00,CLR,,0.00,439.0,WeatherDisplay:10.37,2013-04-01 17:00:00,
2013-04-01 12:05:00,32.8,17.5,30.16,WSW,241,2.3,2.3,53,0.00,CLR,,0.00,940.0,WeatherDisplay:10.37,2013-04-01 17:05:00,
2013-04-01 12:10:00,32.9,17.6,30.16,SW,224,9.2,9.2,53,0.00,CLR,,0.00,981.0,WeatherDisplay:10.37,2013-04-01 17:10:00,
2013-04-01 12:15:00,33.5,19.0,30.16,SSW,204,5.8,5.8,55,0.00,CLR,,0.00,900.0,WeatherDisplay:10.37,2013-04-01 17:15:00,
2013-04-01 12:20:00,33.6,19.1,30.16,WNW,285,1.1,1.1,55,0.00,CLR,,0.00,963.0,WeatherDisplay:10.37,2013-04-01 17:20:00,
2013-04-01 12:25:00,33.1,17.4,30.16,SW,220,5.8,0.0,52,0.00,CLR,,0.00,397.0,WeatherDisplay:10.37,2013-04-01 17:25:00,
2013-04-01 12:30:00,33.3,18.4,30.16,SSW,205,6.0,6.0,54,0.00,CLR,,0.00,888.0,WeatherDisplay:10.37,2013-04-01 17:30:00,
2013-04-01 12:35:00,33.4,19.4,30.16,SW,217,4.6,4.6,56,0.00,CLR,,0.00,895.0,WeatherDisplay:10.37,2013-04-01 17:35:00,
2013-04-01 12:40:00,33.6,18.3,30.16,WSW,247,12.7,12.7,53,0.00,CLR,,0.00,1011.0,WeatherDisplay:10.37,2013-04-01 17:40:00,
2013-04-01 12:45:00,33.3,18.0,30.16,WSW,256,3.5,3.5,53,0.00,CLR,,0.00,877.0,WeatherDisplay:10.37,2013-04-01 17:45:00,
2013-04-01 12:50:00,33.7,17.9,30.16,West,273,4.6,4.6,52,0.00,CLR,,0.00,891.0,WeatherDisplay:10.37,2013-04-01 17:50:00,
2013-04-01 12:55:00,33.6,18.3,30.16,WSW,252,2.3,2.3,53,0.00,CLR,,0.00,1020.0,WeatherDisplay:10.37,2013-04-01 17:55:00,
2013-04-01 13:00:00,34.2,18.4,30.16,SE,133,3.5,3.5,52,0.00,CLR,,0.00,932.0,WeatherDisplay:10.37,2013-04-01 18:00:00,
2013-04-01 13:05:00,33.7,17.5,30.16,SW,234,12.7,12.7,51,0.00,CLR,,0.00,963.0,WeatherDisplay:10.37,2013-04-01 18:05:00,
2013-04-01 13:10:00,33.6,19.1,30.16,SW,223,0.0,0.0,55,0.00,CLR,,0.00,1027.0,WeatherDisplay:10.37,2013-04-01 18:10:00,
2013-04-01 13:15:00,34.9,20.8,30.16,SSW,210,3.5,3.5,56,0.00,CLR,,0.00,935.0,WeatherDisplay:10.37,2013-04-01 18:15:00,
2013-04-01 13:20:00,35.0,20.0,30.16,SW,214,3.5,3.5,54,0.00,CLR,,0.00,951.0,WeatherDisplay:10.37,2013-04-01 18:20:00,
2013-04-01 13:25:00,33.2,17.0,30.16,SSW,201,10.4,10.4,51,0.00,CLR,,0.00,1071.0,WeatherDisplay:10.37,2013-04-01 18:25:00,
2013-04-01 13:30:00,32.9,18.9,30.16,SW,227,3.5,3.5,56,0.00,FEW,,0.00,1020.0,WeatherDisplay:10.37,2013-04-01 18:30:00,
2013-04-01 13:35:00,34.5,20.0,30.16,NW,323,2.3,2.3,55,0.00,CLR,,0.00,947.0,WeatherDisplay:10.37,2013-04-01 18:35:00,
2013-04-01 13:40:00,34.4,18.6,30.16,West,266,3.5,3.5,52,0.00,CLR,,0.00,220.0,WeatherDisplay:10.37,2013-04-01 18:40:00,
2013-04-01 13:45:00,33.7,17.9,30.16,WNW,283,3.5,3.5,52,0.00,BKN,,0.00,223.0,WeatherDisplay:10.37,2013-04-01 18:45:00,
2013-04-01 13:50:00,33.1,17.8,30.16,SW,218,1.1,1.1,53,0.00,BKN,,0.00,295.0,WeatherDisplay:10.37,2013-04-01 18:50:00,
2013-04-01 13:55:00,33.2,19.2,30.16,SW,219,10.4,10.4,56,0.00,BKN,,0.00,1002.0,WeatherDisplay:10.37,2013-04-01 18:55:00,
2013-04-01 14:00:00,33.6,19.6,30.15,WSW,256,3.5,3.5,56,0.00,SCT,,0.00,916.0,WeatherDisplay:10.37,2013-04-01 19:00:00,
2013-04-01 14:05:00,34.7,21.0,30.16,SW,219,6.0,6.0,57,0.00,CLR,,0.00,972.0,WeatherDisplay:10.37,2013-04-01 19:05:00,
2013-04-01 14:10:00,34.3,18.5,30.15,SW,214,9.2,9.2,52,0.00,CLR,,0.00,877.0,WeatherDisplay:10.37,2013-04-01 19:10:00,
2013-04-01 14:15:00,33.5,18.6,30.15,ENE,65,2.3,0.0,54,0.00,CLR,,0.00,232.0,WeatherDisplay:10.37,2013-04-01 19:15:00,
2013-04-01 14:20:00,33.8,19.3,30.15,SW,214,4.0,4.0,55,0.00,SCT,,0.00,953.0,WeatherDisplay:10.37,2013-04-01 19:20:00,
2013-04-01 14:25:00,35.1,21.0,30.15,NNW,330,10.4,10.4,56,0.00,FEW,,0.00,951.0,WeatherDisplay:10.37,2013-04-01 19:25:00,
2013-04-01 14:30:00,35.3,19.9,30.15,WSW,237,2.3,2.3,53,0.00,CLR,,0.00,125.0,WeatherDisplay:10.37,2013-04-01 19:30:00,
2013-04-01 14:35:00,34.5,19.1,30.15,SSW,197,6.0,6.0,53,0.00,SCT,,0.00,879.0,WeatherDisplay:10.37,2013-04-01 19:35:00,
2013-04-01 14:40:00,34.5,19.5,30.15,SW,234,2.3,2.3,54,0.00,FEW,,0.00,891.0,WeatherDisplay:10.37,2013-04-01 19:40:00,
2013-04-01 14:45:00,35.1,20.1,30.15,SW,232,0.0,0.0,54,0.00,CLR,,0.00,974.0,WeatherDisplay:10.37,2013-04-01 19:45:00,
2013-04-01 14:50:00,34.9,19.9,30.15,WNW,283,1.1,1.1,54,0.00,SCT,,0.00,257.0,WeatherDisplay:10.37,2013-04-01 19:50:00,
2013-04-01 14:55:00,35.2,20.2,30.15,SW,224,5.8,5.8,54,0.00,SCT,,0.00,846.0,WeatherDisplay:10.37,2013-04-01 19:55:00,
2013-04-01 15:00:00,35.8,19.9,30.15,South,183,4.6,6.0,52,0.00,FEW,,0.00,863.0,WeatherDisplay:10.37,2013-04-01 20:00:00,
2013-04-01 15:05:00,36.4,21.3,30.15,SW,234,5.8,5.8,54,0.00,CLR,,0.00,847.0,WeatherDisplay:10.37,2013-04-01 20:05:00,
2013-04-01 15:10:00,36.1,20.2,30.15,SW,214,1.1,1.1,52,0.00,CLR,,0.00,823.0,WeatherDisplay:10.37,2013-04-01 20:10:00,
2013-04-01 15:15:00,36.5,21.8,30.15,WSW,248,4.6,4.6,55,0.00,CLR,,0.00,849.0,WeatherDisplay:10.37,2013-04-01 20:15:00,
2013-04-01 15:20:00,36.1,19.7,30.15,WNW,289,4.6,4.6,51,0.00,CLR,,0.00,824.0,WeatherDisplay:10.37,2013-04-01 20:20:00,
2013-04-01 15:25:00,36.5,21.4,30.14,SSW,206,9.2,9.2,54,0.00,CLR,,0.00,809.0,WeatherDisplay:10.37,2013-04-01 20:25:00,
2013-04-01 15:30:00,36.5,20.1,30.14,SSW,212,9.2,9.2,51,0.00,CLR,,0.00,791.0,WeatherDisplay:10.37,2013-04-01 20:30:00,
2013-04-01 15:35:00,35.6,20.6,30.14,SW,229,4.6,4.6,54,0.00,CLR,,0.00,717.0,WeatherDisplay:10.37,2013-04-01 20:35:00,
2013-04-01 15:40:00,36.3,20.3,30.14,SSW,213,3.5,3.5,52,0.00,CLR,,0.00,710.0,WeatherDisplay:10.37,2013-04-01 20:40:00,
2013-04-01 15:45:00,35.6,19.7,30.14,WNW,301,11.5,11.5,52,0.00,CLR,,0.00,705.0,WeatherDisplay:10.37,2013-04-01 20:45:00,
2013-04-01 15:50:00,36.3,20.3,30.14,WNW,303,4.6,4.6,52,0.00,CLR,,0.00,659.0,WeatherDisplay:10.37,2013-04-01 20:50:00,
2013-04-01 15:55:00,36.4,19.5,30.14,SW,231,5.8,5.8,50,0.00,CLR,,0.00,687.0,WeatherDisplay:10.37,2013-04-01 20:55:00,
2013-04-01 16:00:00,35.9,19.0,30.14,West,275,3.5,3.5,50,0.00,CLR,,0.00,640.0,WeatherDisplay:10.37,2013-04-01 21:00:00,
2013-04-01 16:05:00,36.2,19.8,30.14,SW,217,6.0,6.0,51,0.00,CLR,,0.00,640.0,WeatherDisplay:10.37,2013-04-01 21:05:00,
2013-04-01 16:10:00,35.8,19.0,30.14,WNW,301,5.8,5.8,50,0.00,CLR,,0.00,615.0,WeatherDisplay:10.37,2013-04-01 21:10:00,
2013-04-01 16:15:00,36.2,19.8,30.14,WSW,239,5.8,5.8,51,0.00,CLR,,0.00,619.0,WeatherDisplay:10.37,2013-04-01 21:15:00,
2013-04-01 16:20:00,35.9,18.6,30.14,WNW,290,1.1,1.1,49,0.00,CLR,,0.00,582.0,WeatherDisplay:10.37,2013-04-01 21:20:00,
2013-04-01 16:25:00,36.1,18.3,30.14,WNW,283,3.0,3.0,48,0.00,CLR,,0.00,561.0,WeatherDisplay:10.37,2013-04-01 21:25:00,
2013-04-01 16:30:00,36.3,18.9,30.14,NNW,336,5.8,5.8,49,0.00,CLR,,0.00,540.0,WeatherDisplay:10.37,2013-04-01 21:30:00,
2013-04-01 16:35:00,36.5,19.6,30.14,WSW,250,5.8,5.8,50,0.00,CLR,,0.00,573.0,WeatherDisplay:10.37,2013-04-01 21:35:00,
2013-04-01 16:40:00,36.7,20.3,30.14,NE,36,3.5,0.0,51,0.00,CLR,,0.00,522.0,WeatherDisplay:10.37,2013-04-01 21:40:00,
2013-04-01 16:45:00,36.3,19.4,30.14,SSW,200,5.0,5.0,50,0.00,CLR,,0.00,520.0,WeatherDisplay:10.37,2013-04-01 21:45:00,
2013-04-01 16:50:00,35.8,18.5,30.14,WNW,290,1.1,1.1,49,0.00,CLR,,0.00,476.0,WeatherDisplay:10.37,2013-04-01 21:50:00,
2013-04-01 16:55:00,35.9,18.6,30.14,SW,223,5.8,5.8,49,0.00,CLR,,0.00,466.0,WeatherDisplay:10.37,2013-04-01 21:55:00,
2013-04-01 17:00:00,35.7,18.9,30.14,SW,228,1.1,1.1,50,0.00,CLR,,0.00,366.0,WeatherDisplay:10.37,2013-04-01 22:00:00,
2013-04-01 17:05:00,35.4,19.5,30.14,West,260,1.1,0.0,52,0.00,CLR,,0.00,475.0,WeatherDisplay:10.37,2013-04-01 22:05:00,
2013-04-01 17:10:00,35.8,18.0,30.14,WSW,250,3.5,3.5,48,0.00,CLR,,0.00,413.0,WeatherDisplay:10.37,2013-04-01 22:10:00,
2013-04-01 17:15:00,35.7,18.9,30.15,WSW,243,4.6,4.6,50,0.00,CLR,,0.00,392.0,WeatherDisplay:10.37,2013-04-01 22:15:00,
2013-04-01 17:20:00,35.2,18.9,30.15,SE,140,0.0,0.1,51,0.00,CLR,,0.00,225.0,WeatherDisplay:10.37,2013-04-01 22:20:00,
2013-04-01 17:25:00,34.9,19.0,30.15,WSW,239,2.3,2.3,52,0.00,SCT,,0.00,232.0,WeatherDisplay:10.37,2013-04-01 22:25:00,
2013-04-01 17:30:00,34.7,19.3,30.15,SW,230,6.9,6.9,53,0.00,SCT,,0.00,128.0,WeatherDisplay:10.37,2013-04-01 22:30:00,
2013-04-01 17:35:00,34.5,17.3,30.15,SSW,210,5.8,5.8,49,0.00,SCT,,0.00,56.0,WeatherDisplay:10.37,2013-04-01 22:35:00,
2013-04-01 17:40:00,34.4,18.1,30.15,WSW,246,2.3,0.0,51,0.00,BKN,,0.00,44.0,WeatherDisplay:10.37,2013-04-01 22:40:00,
2013-04-01 17:45:00,34.3,18.9,30.15,SW,223,3.5,3.5,53,0.00,BKN,,0.00,40.0,WeatherDisplay:10.37,2013-04-01 22:45:00,
2013-04-01 17:50:00,34.2,17.9,30.15,SSW,205,3.5,3.5,51,0.00,BKN,,0.00,39.0,WeatherDisplay:10.37,2013-04-01 22:50:00,
2013-04-01 17:55:00,34.0,16.8,30.15,SSW,205,0.0,0.0,49,0.00,BKN,,0.00,40.0,WeatherDisplay:10.37,2013-04-01 22:55:00,
2013-04-01 18:00:00,34.0,17.7,30.15,WSW,241,3.5,3.5,51,0.00,BKN,,0.00,79.0,WeatherDisplay:10.37,2013-04-01 23:00:00,
2013-04-01 18:05:00,34.2,17.5,30.15,West,265,1.1,1.1,50,0.00,SCT,,0.00,197.0,WeatherDisplay:10.37,2013-04-01 23:05:00,
2013-04-01 18:10:00,34.2,17.5,30.15,SW,236,1.1,0.0,50,0.00,CLR,,0.00,123.0,WeatherDisplay:10.37,2013-04-01 23:10:00,
2013-04-01 18:15:00,34.2,17.5,30.16,WSW,248,2.3,0.0,50,0.00,CLR,,0.00,100.0,WeatherDisplay:10.37,2013-04-01 23:15:00,
2013-04-01 18:20:00,34.2,17.0,30.16,NW,325,3.5,3.5,49,0.00,SCT,,0.00,95.0,WeatherDisplay:10.37,2013-04-01 23:20:00,
2013-04-01 18:25:00,33.9,16.7,30.16,West,269,3.0,3.0,49,0.00,BKN,,0.00,47.0,WeatherDisplay:10.37,2013-04-01 23:25:00,
2013-04-01 18:30:00,33.7,16.1,30.16,West,276,3.5,3.5,48,0.00,BKN,,0.00,46.0,WeatherDisplay:10.37,2013-04-01 23:30:00,
2013-04-01 18:35:00,33.5,17.3,30.16,NW,320,0.0,0.0,51,0.00,BKN,,0.00,40.0,WeatherDisplay:10.37,2013-04-01 23:35:00,
2013-04-01 18:40:00,33.3,16.6,30.16,WSW,256,4.6,4.6,50,0.00,BKN,,0.00,32.0,WeatherDisplay:10.37,2013-04-01 23:40:00,
2013-04-01 18:45:00,33.1,16.0,30.16,SW,220,1.1,1.1,49,0.00,BKN,,0.00,19.0,WeatherDisplay:10.37,2013-04-01 23:45:00,
2013-04-01 18:50:00,32.8,15.7,30.16,SW,228,1.1,0.0,49,0.00,BKN,,0.00,18.0,WeatherDisplay:10.37,2013-04-01 23:50:00,
2013-04-01 18:55:00,32.6,16.0,30.16,SSW,212,1.1,0.0,50,0.00,BKN,,0.00,14.0,WeatherDisplay:10.37,2013-04-01 23:55:00,
2013-04-01 19:00:00,32.5,16.4,30.16,WSW,244,3.5,3.5,51,0.00,BKN,,0.00,12.0,WeatherDisplay:10.37,2013-04-02 00:00:00,
2013-04-01 19:05:00,32.3,16.2,30.16,NNW,328,2.3,2.3,51,0.00,BKN,,0.00,11.0,WeatherDisplay:10.37,2013-04-02 00:05:00,
2013-04-01 19:10:00,32.2,15.6,30.16,WSW,237,0.0,0.0,50,0.00,BKN,,0.00,7.0,WeatherDisplay:10.37,2013-04-02 00:10:00,
2013-04-01 19:15:00,32.0,15.4,30.16,West,260,0.0,0.0,50,0.00,BKN,,0.00,5.0,WeatherDisplay:10.37,2013-04-02 00:15:00,
2013-04-01 19:20:00,31.8,15.7,30.16,WNW,285,2.3,2.3,51,0.00,OVC,,0.00,0.0,WeatherDisplay:10.37,2013-04-02 00:20:00,
2013-04-01 19:25:00,31.7,15.6,30.16,WNW,285,3.5,0.0,51,0.00,OVC,,0.00,0.0,WeatherDisplay:10.37,2013-04-02 00:25:00,
2013-04-01 19:30:00,31.6,16.0,30.16,NW,311,2.3,0.0,52,0.00,OVC,,0.00,0.0,WeatherDisplay:10.37,2013-04-02 00:30:00,
2013-04-01 19:35:00,31.4,16.2,30.16,NW,309,2.3,0.0,53,0.00,OVC,,0.00,0.0,WeatherDisplay:10.37,2013-04-02 00:35:00,
2013-04-01 19:40:00,31.2,16.0,30.17,WSW,247,0.0,0.0,53,0.00,OVC,,0.00,0.0,WeatherDisplay:10.37,2013-04-02 00:40:00,
2013-04-01 19:45:00,31.1,15.9,30.17,WSW,243,0.0,0.0,53,0.00,OVC,,0.00,0.0,WeatherDisplay:10.37,2013-04-02 00:45:00,
2013-04-01 19:50:00,31.0,16.3,30.17,SSE,166,1.1,1.1,54,0.00,OVC,,0.00,0.0,WeatherDisplay:10.37,2013-04-02 00:50:00,
2013-04-01 19:55:00,30.9,15.8,30.17,WSW,238,2.3,0.0,53,0.00,CLR,,0.00,0.0,WeatherDisplay:10.37,2013-04-02 00:55:00,
2013-04-01 20:00:00,30.9,16.6,30.17,WSW,237,0.0,0.0,55,0.00,CLR,,0.00,0.0,WeatherDisplay:10.37,2013-04-02 01:00:00,
2013-04-01 20:05:00,30.7,16.4,30.17,West,266,0.0,0.0,55,0.00,CLR,,0.00,0.0,WeatherDisplay:10.37,2013-04-02 01:05:00,
2013-04-01 20:10:00,30.6,16.3,30.17,West,279,0.0,0.0,55,0.00,CLR,,0.00,0.0,WeatherDisplay:10.37,2013-04-02 01:10:00,
2013-04-01 20:15:00,30.5,15.8,30.18,West,273,0.0,0.0,54,0.00,CLR,,0.00,0.0,WeatherDisplay:10.37,2013-04-02 01:15:00,
2013-04-01 20:20:00,30.5,16.7,30.18,WSW,238,0.0,0.0,56,0.00,CLR,,0.00,0.0,WeatherDisplay:10.37,2013-04-02 01:20:00,
2013-04-01 20:25:00,30.4,16.6,30.18,WNW,287,0.0,0.0,56,0.00,CLR,,0.00,0.0,WeatherDisplay:10.37,2013-04-02 01:25:00,
2013-04-01 20:30:00,30.3,16.5,30.18,NW,304,1.1,0.0,56,0.00,CLR,,0.00,0.0,WeatherDisplay:10.37,2013-04-02 01:30:00,
2013-04-01 20:35:00,30.3,17.7,30.18,WSW,258,1.1,0.0,59,0.00,CLR,,0.00,0.0,WeatherDisplay:10.37,2013-04-02 01:35:00,
2013-04-01 20:40:00,30.3,16.0,30.19,West,279,0.0,0.0,55,0.00,CLR,,0.00,0.0,WeatherDisplay:10.37,2013-04-02 01:40:00,
2013-04-01 20:45:00,30.3,16.0,30.19,WSW,245,3.5,3.5,55,0.00,CLR,,0.00,0.0,WeatherDisplay:10.37,2013-04-02 01:45:00,
2013-04-01 20:50:00,30.3,16.5,30.19,SSW,203,2.3,2.3,56,0.00,CLR,,0.00,0.0,WeatherDisplay:10.37,2013-04-02 01:50:00,
2013-04-01 20:55:00,30.2,16.4,30.19,NW,312,0.0,0.0,56,0.00,CLR,,0.00,0.0,WeatherDisplay:10.37,2013-04-02 01:55:00,
2013-04-01 21:00:00,30.1,16.7,30.19,South,180,2.3,2.3,57,0.00,CLR,,0.00,0.0,WeatherDisplay:10.37,2013-04-02 02:00:00,
2013-04-01 21:05:00,30.0,16.6,30.19,WNW,290,0.0,0.0,57,0.00,CLR,,0.00,0.0,WeatherDisplay:10.37,2013-04-02 02:05:00,
2013-04-01 21:10:00,30.0,16.6,30.19,North,5,0.0,0.0,57,0.00,CLR,,0.00,0.0,WeatherDisplay:10.37,2013-04-02 02:10:00,
2013-04-01 21:15:00,29.8,16.8,30.20,WNW,293,3.5,0.0,58,0.00,CLR,,0.00,0.0,WeatherDisplay:10.37,2013-04-02 02:15:00,
2013-04-01 21:20:00,29.8,16.4,30.20,WSW,256,1.1,1.1,57,0.00,CLR,,0.00,0.0,WeatherDisplay:10.37,2013-04-02 02:20:00,
2013-04-01 21:25:00,29.8,16.4,30.20,SW,216,0.0,0.0,57,0.00,CLR,,0.00,0.0,WeatherDisplay:10.37,2013-04-02 02:25:00,
2013-04-01 21:30:00,29.7,16.7,30.20,SW,228,3.5,3.5,58,0.00,CLR,,0.00,0.0,WeatherDisplay:10.37,2013-04-02 02:30:00,
2013-04-01 21:35:00,29.6,17.0,30.21,WSW,241,0.0,0.1,59,0.00,CLR,,0.00,0.0,WeatherDisplay:10.37,2013-04-02 02:35:00,
2013-04-01 21:40:00,29.4,16.8,30.21,WSW,256,0.0,0.0,59,0.00,CLR,,0.00,0.0,WeatherDisplay:10.37,2013-04-02 02:40:00,
2013-04-01 21:45:00,29.4,17.2,30.21,WSW,237,1.0,0.0,60,0.00,CLR,,0.00,0.0,WeatherDisplay:10.37,2013-04-02 02:45:00,
2013-04-01 21:50:00,29.3,17.5,30.21,WSW,243,0.0,0.0,61,0.00,CLR,,0.00,0.0,WeatherDisplay:10.37,2013-04-02 02:50:00,
2013-04-01 21:55:00,29.1,17.3,30.21,WSW,246,0.0,0.0,61,0.00,CLR,,0.00,0.0,WeatherDisplay:10.37,2013-04-02 02:55:00,
2013-04-01 22:00:00,29.0,17.6,30.21,WSW,246,0.0,0.0,62,0.00,CLR,,0.00,0.0,WeatherDisplay:10.37,2013-04-02 03:00:00,
2013-04-01 22:05:00,28.9,17.5,30.21,NW,320,0.0,0.0,62,0.00,CLR,,0.00,0.0,WeatherDisplay:10.37,2013-04-02 03:05:00,
2013-04-01 22:10:00,28.8,17.4,30.22,SSW,206,2.3,0.0,62,0.00,CLR,,0.00,0.0,WeatherDisplay:10.37,2013-04-02 03:10:00,
2013-04-01 22:15:00,28.7,17.7,30.22,SSW,206,0.0,0.0,63,0.00,CLR,,0.00,0.0,WeatherDisplay:10.37,2013-04-02 03:15:00,
2013-04-01 22:20:00,28.6,18.0,30.22,SSW,206,0.0,0.0,64,0.00,CLR,,0.00,0.0,WeatherDisplay:10.37,2013-04-02 03:20:00,
2013-04-01 22:25:00,28.4,17.8,30.22,SSW,206,0.0,0.0,64,0.00,CLR,,0.00,0.0,WeatherDisplay:10.37,2013-04-02 03:25:00,
2013-04-01 22:30:00,28.3,17.3,30.22,SW,224,0.0,0.0,63,0.00,CLR,,0.00,0.0,WeatherDisplay:10.37,2013-04-02 03:30:00,
2013-04-01 22:35:00,28.3,17.7,30.22,SW,220,0.0,0.0,64,0.00,CLR,,0.00,0.0,WeatherDisplay:10.37,2013-04-02 03:35:00,
2013-04-01 22:40:00,28.2,17.6,30.22,SW,220,0.0,0.0,64,0.00,CLR,,0.00,0.0,WeatherDisplay:10.37,2013-04-02 03:40:00,
2013-04-01 22:45:00,28.1,17.5,30.22,SW,221,0.0,0.0,64,0.00,CLR,,0.00,0.0,WeatherDisplay:10.37,2013-04-02 03:45:00,
2013-04-01 22:50:00,28.0,17.4,30.22,SSW,212,0.0,0.0,64,0.00,CLR,,0.00,0.0,WeatherDisplay:10.37,2013-04-02 03:50:00,
2013-04-01 22:55:00,27.9,17.3,30.22,SW,232,0.0,0.0,64,0.00,CLR,,0.00,0.0,WeatherDisplay:10.37,2013-04-02 03:55:00,
2013-04-01 23:00:00,27.8,17.6,30.23,SW,233,0.0,0.0,65,0.00,CLR,,0.00,0.0,WeatherDisplay:10.37,2013-04-02 04:00:00,
2013-04-01 23:05:00,27.6,17.4,30.22,NW,311,1.1,0.0,65,0.00,CLR,,0.00,0.0,WeatherDisplay:10.37,2013-04-02 04:05:00,
2013-04-01 23:10:00,27.5,17.3,30.22,SW,227,0.0,0.0,65,0.00,CLR,,0.00,0.0,WeatherDisplay:10.37,2013-04-02 04:10:00,
2013-04-01 23:15:00,27.3,17.4,30.22,SW,227,0.0,0.0,66,0.00,CLR,,0.00,0.0,WeatherDisplay:10.37,2013-04-02 04:15:00,
2013-04-01 23:20:00,27.2,17.3,30.22,SW,227,0.0,0.0,66,0.00,CLR,,0.00,0.0,WeatherDisplay:10.37,2013-04-02 04:20:00,
2013-04-01 23:25:00,27.1,17.2,30.22,SW,227,0.0,0.0,66,0.00,CLR,,0.00,0.0,WeatherDisplay:10.37,2013-04-02 04:25:00,
2013-04-01 23:30:00,26.9,17.4,30.22,SW,227,0.0,0.0,67,0.00,CLR,,0.00,0.0,WeatherDisplay:10.37,2013-04-02 04:30:00,
2013-04-01 23:35:00,26.8,17.3,30.22,SW,225,0.0,0.0,67,0.00,CLR,,0.00,0.0,WeatherDisplay:10.37,2013-04-02 04:35:00,
2013-04-01 23:40:00,26.7,17.2,30.22,West,262,0.0,0.0,67,0.00,CLR,,0.00,0.0,WeatherDisplay:10.37,2013-04-02 04:40:00,
2013-04-01 23:45:00,26.6,17.1,30.22,WSW,256,0.0,0.0,67,0.00,CLR,,0.00,0.0,WeatherDisplay:10.37,2013-04-02 04:45:00,
2013-04-01 23:50:00,26.6,17.1,30.22,WSW,256,0.0,0.0,67,0.00,CLR,,0.00,0.0,WeatherDisplay:10.37,2013-04-02 04:50:00,
2013-04-01 23:55:00,26.6,17.5,30.22,WSW,255,0.0,0.0,68,0.00,CLR,,0.00,0.0,WeatherDisplay:10.37,2013-04-02 04:55:00,